Time;durP1;ratioP1;P1;durP2;ratioP2;P2;SDS_P1;SDS_P2;PMS_P1;PMS_P2;Temp;Humidity;BMP_temperature;BMP_pressure;BME280_temperature;BME280_humidity;BME280_pressure;Samples;Min_cycle;Max_cycle;Signal;HPM_P1;HPM_P2
2022/06/11 00:01:57;;;;;;;;;;;;;;;19.51;70.02;100332.31;4996733;28;19917;-86
2022/06/11 00:04:34;;;;;;;;;;;;;;;19.51;70.48;100334.22;5010663;28;20020;-87
2022/06/11 00:07:02;;;;;;;;;;;;;;;19.53;71.25;100332.09;4995687;28;20016;-85
2022/06/11 00:09:36;;;;;;;;;;;;;;;19.53;71.24;100335.63;5025198;28;20076;-86
2022/06/11 00:12:01;;;;;;;;;;;;;;;19.55;71.15;100341.69;5012556;28;20008;-85
2022/06/11 00:14:30;;;;;;;;;;;;;;;19.53;71.68;100348.44;4995406;28;19953;-87
2022/06/11 00:16:56;;;;;;;;;;;;;;;19.49;71.13;100347.22;5001244;28;20008;-87
2022/06/11 00:19:22;;;;;;;;;;;;;;;19.48;71.26;100346.41;5008672;28;20497;-84
2022/06/11 00:21:48;;;;;;;;;;;;;;;19.50;71.54;100346.16;4995696;28;20008;-87
2022/06/11 00:24:19;;;;;;;;;;;;;;;19.53;70.65;100357.44;5001890;28;20020;-86
2022/06/11 00:26:44;;;;;;;;;;;;;;;19.57;70.25;100355.94;4998552;28;19924;-85
2022/06/11 00:29:10;;;;;;;;;;;;;;;19.59;69.50;100351.06;5002836;28;19944;-90
2022/06/11 00:31:35;;;;;;;;;;;;;;;19.49;70.78;100358.97;5020482;28;19969;-88
2022/06/11 00:34:01;;;;;;;;;;;;;;;19.54;70.15;100353.66;5003979;28;19905;-93
2022/06/11 00:36:28;;;;;;;;;;;;;;;19.59;70.95;100345.63;5035792;28;19932;-88
2022/06/11 00:38:56;;;;;;;;;;;;;;;19.59;71.20;100345.63;5011713;28;19917;-90
2022/06/11 00:41:23;;;;;;;;;;;;;;;19.47;71.23;100342.00;4981945;28;19948;-85
2022/06/11 00:43:49;;;;;;;;;;;;;;;19.56;71.29;100340.63;4984885;28;19941;-90
2022/06/11 00:46:33;;;;;;;;;;;;;;;19.55;71.32;100344.44;5000756;28;19917;-86
2022/06/11 00:49:03;;;;;;;;;;;;;;;19.58;71.64;100343.97;5016944;28;19917;-87
2022/06/11 00:51:31;;;;;;;;;;;;;;;19.66;71.43;100350.16;4976182;28;20378;-88
2022/06/11 00:54:01;;;;;;;;;;;;;;;19.69;71.55;100349.72;4990345;28;19928;-86
2022/06/11 00:56:38;;;;;;;;;;;;;;;19.68;71.19;100358.97;5012097;28;19918;-87
2022/06/11 00:59:05;;;;;;;;;;;;;;;19.68;71.48;100359.81;4992363;28;20457;-88
2022/06/11 01:01:31;;;;;;;;;;;;;;;19.74;71.14;100358.09;5007028;28;19944;-88
2022/06/11 01:04:21;;;;;;;;;;;;;;;19.76;70.93;100361.38;4994431;28;19921;-85
2022/06/11 01:06:53;;;;;;;;;;;;;;;19.70;71.49;100362.31;4983354;28;20313;-86
2022/06/11 01:09:37;;;;;;;;;;;;;;;19.53;71.88;100362.09;5005947;28;19975;-88
2022/06/11 01:12:29;;;;;;;;;;;;;;;19.58;72.03;100354.03;5002140;28;19922;-87
2022/06/11 01:15:08;;;;;;;;;;;;;;;19.70;72.02;100356.88;5007053;28;20447;-87
2022/06/11 01:17:43;;;;;;;;;;;;;;;19.75;71.65;100349.66;5013092;28;20129;-88
2022/06/11 01:20:09;;;;;;;;;;;;;;;19.74;71.92;100355.34;4996608;28;20400;-85
2022/06/11 01:22:38;;;;;;;;;;;;;;;19.68;72.65;100357.09;5005600;28;19917;-86
2022/06/11 01:25:21;;;;;;;;;;;;;;;19.70;73.02;100345.97;5005853;28;19968;-87
2022/06/11 01:27:50;;;;;;;;;;;;;;;19.74;72.86;100353.47;5010971;28;19913;-86
2022/06/11 01:30:19;;;;;;;;;;;;;;;19.73;73.22;100340.88;4995048;28;19914;-86
2022/06/11 01:32:44;;;;;;;;;;;;;;;19.73;73.18;100345.50;4996260;28;19922;-86
2022/06/11 01:35:31;;;;;;;;;;;;;;;19.75;72.71;100343.38;5001402;28;19920;-86
2022/06/11 01:38:23;;;;;;;;;;;;;;;19.77;72.65;100339.34;5011426;28;20363;-85
2022/06/11 01:40:55;;;;;;;;;;;;;;;19.74;72.60;100349.91;4984863;28;19936;-86
2022/06/11 01:43:31;;;;;;;;;;;;;;;19.83;72.22;100351.25;4976961;28;20390;-85
2022/06/11 01:45:57;;;;;;;;;;;;;;;19.82;72.20;100352.31;4993749;28;19919;-86
2022/06/11 01:48:27;;;;;;;;;;;;;;;19.57;73.01;100352.34;4993283;28;19963;-87
2022/06/11 01:51:31;;;;;;;;;;;;;;;19.67;72.93;100360.03;5007492;28;19965;-89
2022/06/11 01:54:17;;;;;;;;;;;;;;;19.69;73.06;100355.19;4946328;28;19935;-87
2022/06/11 01:56:42;;;;;;;;;;;;;;;19.75;72.90;100349.66;4954279;28;20226;-85
2022/06/11 01:59:17;;;;;;;;;;;;;;;19.73;72.80;100340.88;4989050;28;20020;-86
2022/06/11 02:01:54;;;;;;;;;;;;;;;19.76;72.62;100328.66;5011728;28;19917;-86
2022/06/11 02:04:38;;;;;;;;;;;;;;;19.67;73.01;100330.03;4996709;28;19921;-87
2022/06/11 02:07:14;;;;;;;;;;;;;;;19.65;73.26;100338.44;4993767;28;19924;-86
2022/06/11 02:09:51;;;;;;;;;;;;;;;19.67;73.00;100346.41;5015432;28;20011;-85
2022/06/11 02:12:21;;;;;;;;;;;;;;;19.54;73.69;100336.47;5003085;28;19921;-86
2022/06/11 02:14:50;;;;;;;;;;;;;;;19.49;74.31;100348.06;4990112;28;19913;-85
2022/06/11 02:17:23;;;;;;;;;;;;;;;19.53;74.19;100341.09;4994644;28;19922;-87
2022/06/11 02:19:50;;;;;;;;;;;;;;;19.55;74.25;100338.97;5003313;28;19920;-85
2022/06/11 02:22:25;;;;;;;;;;;;;;;19.55;74.43;100340.84;4999486;28;19956;-87
2022/06/11 02:24:57;;;;;;;;;;;;;;;19.47;74.69;100347.44;4994700;28;19921;-86
2022/06/11 02:27:24;;;;;;;;;;;;;;;19.42;74.18;100344.56;5010715;28;20378;-86
2022/06/11 02:29:53;;;;;;;;;;;;;;;19.37;73.48;100338.97;4993636;28;19909;-86
2022/06/11 02:32:24;;;;;;;;;;;;;;;19.37;73.67;100337.06;5001096;28;19917;-86
2022/06/11 02:34:54;;;;;;;;;;;;;;;19.42;73.76;100333.66;4983363;28;19917;-86
2022/06/11 02:37:26;;;;;;;;;;;;;;;19.29;74.10;100341.97;5000640;28;20251;-86
2022/06/11 02:39:52;;;;;;;;;;;;;;;19.30;73.46;100338.22;5018538;28;19913;-85
2022/06/11 02:42:18;;;;;;;;;;;;;;;19.22;73.18;100354.84;4996856;28;20468;-85
2022/06/11 02:44:43;;;;;;;;;;;;;;;19.19;73.26;100346.06;4984588;28;19957;-86
2022/06/11 02:47:10;;;;;;;;;;;;;;;19.18;73.20;100358.03;4993641;28;20406;-86
2022/06/11 02:49:37;;;;;;;;;;;;;;;19.14;72.32;100355.97;5012881;28;19925;-86
2022/06/11 02:52:04;;;;;;;;;;;;;;;18.88;73.12;100351.63;4998164;28;19924;-87
2022/06/11 02:54:30;;;;;;;;;;;;;;;19.03;73.04;100359.44;4997553;28;20104;-85
2022/06/11 02:56:59;;;;;;;;;;;;;;;19.07;72.71;100363.38;5015871;28;20393;-85
2022/06/11 02:59:34;;;;;;;;;;;;;;;19.12;72.10;100366.25;5009624;28;20370;-86
2022/06/11 03:02:01;;;;;;;;;;;;;;;19.11;72.31;100360.00;4998917;28;19921;-87
2022/06/11 03:04:27;;;;;;;;;;;;;;;19.05;73.09;100365.50;5017104;28;19925;-87
2022/06/11 03:06:53;;;;;;;;;;;;;;;19.12;72.96;100361.63;5000583;28;20482;-87
2022/06/11 03:09:21;;;;;;;;;;;;;;;19.06;73.09;100362.56;4997491;28;20129;-90
2022/06/11 03:11:49;;;;;;;;;;;;;;;19.06;73.42;100368.00;5021771;28;19921;-88
2022/06/11 03:14:15;;;;;;;;;;;;;;;19.00;73.89;100378.97;4986465;28;19918;-85
2022/06/11 03:16:40;;;;;;;;;;;;;;;18.98;74.32;100377.28;4999746;28;20396;-86
2022/06/11 03:19:07;;;;;;;;;;;;;;;19.03;73.97;100379.34;4982725;28;19917;-87
2022/06/11 03:21:32;;;;;;;;;;;;;;;19.03;74.46;100384.78;5013179;28;19909;-88
2022/06/11 03:24:02;;;;;;;;;;;;;;;19.03;74.47;100384.78;5003079;28;19913;-86
2022/06/11 03:26:28;;;;;;;;;;;;;;;19.16;73.99;100387.38;5017533;28;19920;-86
2022/06/11 03:28:56;;;;;;;;;;;;;;;19.16;73.82;100384.66;5017630;28;19917;-90
2022/06/11 03:31:23;;;;;;;;;;;;;;;19.24;73.93;100393.63;4985290;28;19918;-86
2022/06/11 03:33:49;;;;;;;;;;;;;;;19.18;74.37;100388.00;5020293;28;19939;-86
2022/06/11 03:36:16;;;;;;;;;;;;;;;19.33;74.05;100384.09;5015682;28;19964;-88
2022/06/11 03:38:42;;;;;;;;;;;;;;;19.44;73.82;100386.06;5017003;28;19917;-86
2022/06/11 03:41:08;;;;;;;;;;;;;;;19.53;73.69;100383.88;5017777;28;19913;-86
2022/06/11 03:43:33;;;;;;;;;;;;;;;19.66;73.38;100391.06;4981920;28;19928;-84
2022/06/11 03:46:00;;;;;;;;;;;;;;;19.75;73.12;100389.75;4997984;28;19964;-86
2022/06/11 03:48:28;;;;;;;;;;;;;;;19.95;72.47;100386.78;5014214;28;19925;-86
2022/06/11 03:50:55;;;;;;;;;;;;;;;20.02;72.27;100384.81;5013084;28;19917;-86
2022/06/11 03:53:21;;;;;;;;;;;;;;;19.86;72.92;100394.44;4992051;28;20025;-85
2022/06/11 03:55:49;;;;;;;;;;;;;;;20.15;72.01;100405.59;4993929;28;20020;-88
2022/06/11 03:58:20;;;;;;;;;;;;;;;20.09;71.90;100404.66;5005713;28;19933;-87
2022/06/11 04:03:30;;;;;;;;;;;;;;;20.05;72.38;100408.06;4987330;28;19928;-88
2022/06/11 04:06:02;;;;;;;;;;;;;;;20.28;72.24;100419.09;4996089;28;19917;-89
2022/06/11 04:08:35;;;;;;;;;;;;;;;20.58;70.75;100423.72;4995881;28;19918;-88
2022/06/11 04:11:01;;;;;;;;;;;;;;;20.30;71.65;100437.94;4993550;28;20004;-86
2022/06/11 04:13:28;;;;;;;;;;;;;;;20.36;71.71;100443.31;5018027;28;20350;-86
2022/06/11 04:15:55;;;;;;;;;;;;;;;20.38;71.82;100443.94;5010351;28;19914;-88
2022/06/11 04:18:26;;;;;;;;;;;;;;;20.44;71.78;100448.47;4993865;28;19968;-86
2022/06/11 04:20:53;;;;;;;;;;;;;;;20.53;71.63;100456.31;4994903;28;19917;-91
2022/06/11 04:23:18;;;;;;;;;;;;;;;20.60;71.64;100454.38;5024736;28;19929;-89
2022/06/11 04:25:46;;;;;;;;;;;;;;;20.45;72.00;100455.59;5002117;28;19917;-88
2022/06/11 04:28:12;;;;;;;;;;;;;;;20.42;72.66;100447.88;4996112;28;19914;-91
2022/06/11 04:30:38;;;;;;;;;;;;;;;20.19;73.25;100436.84;4994843;28;19914;-86
2022/06/11 04:33:07;;;;;;;;;;;;;;;20.44;72.76;100442.19;4994968;28;19921;-84
2022/06/11 04:35:37;;;;;;;;;;;;;;;20.44;72.57;100440.28;4994698;28;20001;-89
2022/06/11 04:38:17;;;;;;;;;;;;;;;20.47;72.58;100449.91;4993930;28;20394;-90
2022/06/11 04:40:43;;;;;;;;;;;;;;;20.53;72.51;100459.06;5007072;28;19918;-93
2022/06/11 04:43:17;;;;;;;;;;;;;;;20.58;72.38;100461.94;5017203;28;19922;-96
2022/06/11 04:45:44;;;;;;;;;;;;;;;20.72;72.20;100463.47;5009058;28;19902;-89
2022/06/11 04:48:19;;;;;;;;;;;;;;;20.67;72.16;100476.94;5306727;23;19910;-89
2022/06/11 04:50:48;;;;;;;;;;;;;;;20.62;72.20;100463.16;5015934;28;19993;-92
2022/06/11 04:53:15;;;;;;;;;;;;;;;20.60;72.25;100470.75;4984469;28;19918;-86
2022/06/11 04:55:47;;;;;;;;;;;;;;;20.54;72.59;100471.66;4993615;28;20001;-87
2022/06/11 04:58:14;;;;;;;;;;;;;;;20.47;73.13;100485.41;4996951;28;19913;-87
2022/06/11 05:00:40;;;;;;;;;;;;;;;20.49;73.31;100491.47;4994779;28;20077;-86
2022/06/11 05:03:10;;;;;;;;;;;;;;;20.65;72.57;100507.25;5009675;28;19938;-86
2022/06/11 05:05:41;;;;;;;;;;;;;;;20.57;72.89;100510.28;5009811;28;19945;-85
2022/06/11 05:08:12;;;;;;;;;;;;;;;20.66;72.75;100513.53;4996138;28;19913;-86
2022/06/11 05:10:39;;;;;;;;;;;;;;;20.61;72.69;100506.03;4994170;28;19941;-89
2022/06/11 05:13:06;;;;;;;;;;;;;;;20.55;73.09;100506.09;4999232;28;19941;-86
2022/06/11 05:15:34;;;;;;;;;;;;;;;20.39;73.74;100497.50;5007256;28;19928;-89
2022/06/11 05:18:04;;;;;;;;;;;;;;;20.42;73.91;100510.66;4996556;28;19921;-85
2022/06/11 05:20:30;;;;;;;;;;;;;;;20.35;74.28;100520.84;4991126;28;20029;-88
2022/06/11 05:22:57;;;;;;;;;;;;;;;20.37;74.49;100528.78;4998039;28;19924;-90
2022/06/11 05:25:23;;;;;;;;;;;;;;;20.32;75.01;100518.56;5006483;28;19918;-88
2022/06/11 05:27:49;;;;;;;;;;;;;;;20.41;74.67;100522.63;4990495;28;19952;-87
2022/06/11 05:30:25;;;;;;;;;;;;;;;20.51;74.92;100522.13;4993416;28;19961;-88
2022/06/11 05:32:54;;;;;;;;;;;;;;;20.37;75.89;100516.00;4993566;28;20357;-88
2022/06/11 05:35:46;;;;;;;;;;;;;;;20.44;76.15;100524.94;4992065;28;19922;-91
2022/06/11 05:38:13;;;;;;;;;;;;;;;20.56;76.01;100524.19;4994999;28;19916;-85
2022/06/11 05:40:41;;;;;;;;;;;;;;;20.62;75.99;100528.72;4993547;28;19914;-87
2022/06/11 05:43:09;;;;;;;;;;;;;;;20.65;75.99;100525.53;5010205;28;19968;-87
2022/06/11 05:45:50;;;;;;;;;;;;;;;20.74;75.80;100531.50;4996506;28;19918;-88
2022/06/11 05:48:21;;;;;;;;;;;;;;;20.92;75.32;100527.91;4982564;28;19922;-90
2022/06/11 05:50:52;;;;;;;;;;;;;;;20.84;75.42;100529.06;5017070;28;19932;-91
2022/06/11 05:53:46;;;;;;;;;;;;;;;21.05;74.77;100528.53;5016757;28;20431;-92
2022/06/11 05:56:14;;;;;;;;;;;;;;;21.12;74.07;100527.56;4996857;28;19918;-91
2022/06/11 05:58:46;;;;;;;;;;;;;;;21.19;73.82;100533.78;4997888;28;19921;-88
2022/06/11 06:01:15;;;;;;;;;;;;;;;21.27;73.41;100526.06;4997375;28;19949;-90
2022/06/11 06:03:44;;;;;;;;;;;;;;;21.29;73.44;100528.59;4997471;28;19922;-90
2022/06/11 06:06:20;;;;;;;;;;;;;;;21.23;73.43;100530.34;5016628;28;20005;-89
2022/06/11 06:08:49;;;;;;;;;;;;;;;21.27;73.46;100537.00;4998714;28;19920;-90
2022/06/11 06:11:22;;;;;;;;;;;;;;;21.34;72.93;100525.97;4996267;28;19913;-89
2022/06/11 06:13:53;;;;;;;;;;;;;;;21.39;72.95;100528.00;5000664;28;19925;-90
2022/06/11 06:16:25;;;;;;;;;;;;;;;21.40;73.02;100532.41;5030871;28;19913;-90
2022/06/11 06:18:55;;;;;;;;;;;;;;;21.46;72.74;100540.53;5013315;28;19913;-89
2022/06/11 06:21:41;;;;;;;;;;;;;;;21.57;72.72;100540.78;4981499;28;19984;-87
2022/06/11 06:24:08;;;;;;;;;;;;;;;21.62;72.67;100543.63;5017582;28;19914;-89
2022/06/11 06:26:37;;;;;;;;;;;;;;;21.55;72.72;100542.91;5012845;28;19932;-92
2022/06/11 06:29:05;;;;;;;;;;;;;;;21.58;72.85;100540.53;4993880;28;20440;-89
2022/06/11 06:31:37;;;;;;;;;;;;;;;21.63;72.63;100540.69;4994719;28;20346;-87
2022/06/11 06:34:06;;;;;;;;;;;;;;;21.62;72.81;100544.47;4999408;28;19956;-93
2022/06/11 06:36:34;;;;;;;;;;;;;;;21.55;73.17;100543.75;5012491;28;19952;-91
2022/06/11 06:39:03;;;;;;;;;;;;;;;21.52;73.28;100540.63;4973526;28;19918;-90
2022/06/11 06:41:39;;;;;;;;;;;;;;;21.56;73.30;100534.47;5009937;28;19967;-92
2022/06/11 06:44:07;;;;;;;;;;;;;;;21.61;73.32;100540.06;5033634;28;19932;-86
2022/06/11 06:46:34;;;;;;;;;;;;;;;21.41;74.10;100536.84;5017164;28;19921;-87
2022/06/11 06:49:00;;;;;;;;;;;;;;;21.45;74.11;100543.50;5003984;28;19945;-87
2022/06/11 06:51:25;;;;;;;;;;;;;;;21.34;74.44;100541.56;4995055;28;19979;-87
2022/06/11 06:53:51;;;;;;;;;;;;;;;21.15;75.83;100544.34;4993059;28;20302;-86
2022/06/11 06:56:17;;;;;;;;;;;;;;;20.96;76.54;100545.50;4995338;28;19956;-87
2022/06/11 06:58:43;;;;;;;;;;;;;;;21.06;76.52;100540.28;4992863;28;20138;-83
2022/06/11 07:01:10;;;;;;;;;;;;;;;21.09;76.78;100542.53;5009687;28;20289;-87
2022/06/11 07:03:42;;;;;;;;;;;;;;;21.15;76.40;100529.88;4974310;28;19921;-89
2022/06/11 07:06:12;;;;;;;;;;;;;;;21.29;76.59;100540.34;4978031;28;20301;-88
2022/06/11 07:08:37;;;;;;;;;;;;;;;21.31;76.51;100542.03;5008205;28;19925;-86
2022/06/11 07:11:04;;;;;;;;;;;;;;;21.41;76.48;100543.13;4989944;28;19921;-88
2022/06/11 07:13:32;;;;;;;;;;;;;;;21.42;75.68;100544.81;5007469;28;19924;-89
2022/06/11 07:16:09;;;;;;;;;;;;;;;21.47;74.31;100546.84;5000804;28;19968;-89
2022/06/11 07:18:37;;;;;;;;;;;;;;;21.50;74.86;100549.94;5027029;28;19917;-86
2022/06/11 07:21:23;;;;;;;;;;;;;;;21.43;72.61;100549.19;4999159;28;19920;-87
2022/06/11 07:23:54;;;;;;;;;;;;;;;21.51;72.35;100548.00;5012786;28;19921;-90
2022/06/11 07:26:22;;;;;;;;;;;;;;;21.50;73.43;100549.09;5022464;28;19940;-90
2022/06/11 07:29:07;;;;;;;;;;;;;;;21.48;72.69;100548.50;4993507;28;19939;-89
2022/06/11 07:31:32;;;;;;;;;;;;;;;21.48;72.96;100545.75;4998908;28;19918;-89
2022/06/11 07:34:01;;;;;;;;;;;;;;;21.58;73.52;100551.47;4980788;28;20007;-87
2022/06/11 07:36:26;;;;;;;;;;;;;;;21.52;74.15;100555.16;4994731;28;19917;-87
2022/06/11 07:38:53;;;;;;;;;;;;;;;21.58;74.85;100548.75;4992759;28;19921;-92
2022/06/11 07:41:20;;;;;;;;;;;;;;;21.45;75.26;100549.81;5003553;28;19921;-90
2022/06/11 07:43:46;;;;;;;;;;;;;;;21.67;74.92;100551.97;5006476;28;19917;-86
2022/06/11 07:46:12;;;;;;;;;;;;;;;21.68;74.81;100553.63;5022619;28;19918;-85
2022/06/11 07:48:40;;;;;;;;;;;;;;;21.78;74.67;100553.06;5022113;28;19918;-86
2022/06/11 07:51:06;;;;;;;;;;;;;;;21.83;74.78;100555.91;5012720;28;19977;-86
2022/06/11 07:53:32;;;;;;;;;;;;;;;21.89;74.83;100557.66;5011431;28;20015;-83
2022/06/11 07:55:58;;;;;;;;;;;;;;;21.74;74.57;100547.22;4995404;28;19987;-85
2022/06/11 07:58:27;;;;;;;;;;;;;;;21.67;73.84;100546.50;4990716;28;19921;-85
2022/06/11 08:00:57;;;;;;;;;;;;;;;21.65;75.10;100543.97;4998552;28;19918;-87
2022/06/11 08:03:27;;;;;;;;;;;;;;;21.74;75.19;100540.91;5011399;28;19921;-85
2022/06/11 08:05:53;;;;;;;;;;;;;;;21.73;74.62;100533.75;4995831;28;19917;-85
2022/06/11 08:08:18;;;;;;;;;;;;;;;21.81;74.16;100536.16;4995509;28;20060;-85
2022/06/11 08:10:46;;;;;;;;;;;;;;;21.82;74.50;100533.19;5001260;28;19913;-82
2022/06/11 08:13:17;;;;;;;;;;;;;;;21.84;73.74;100530.19;4990460;28;19956;-82
2022/06/11 08:15:46;;;;;;;;;;;;;;;21.82;73.78;100524.97;5011553;28;19928;-83
2022/06/11 08:18:11;;;;;;;;;;;;;;;21.95;74.09;100525.78;4999586;28;19917;-81
2022/06/11 08:20:37;;;;;;;;;;;;;;;21.94;74.61;100527.69;5007932;28;19917;-81
2022/06/11 08:23:03;;;;;;;;;;;;;;;22.08;73.71;100531.03;4992672;28;19992;-81
2022/06/11 08:25:29;;;;;;;;;;;;;;;21.98;72.66;100528.88;4998033;28;19949;-79
2022/06/11 08:27:58;;;;;;;;;;;;;;;22.04;73.19;100524.34;5015480;28;20066;-81
2022/06/11 08:30:33;;;;;;;;;;;;;;;22.14;73.14;100521.81;4996278;28;19982;-83
2022/06/11 08:33:00;;;;;;;;;;;;;;;22.14;72.06;100519.91;5002094;28;20449;-83
2022/06/11 08:35:30;;;;;;;;;;;;;;;22.19;73.31;100515.63;5001279;28;20282;-82
2022/06/11 08:37:58;;;;;;;;;;;;;;;22.35;73.21;100514.91;4983002;28;19924;-84
2022/06/11 08:40:43;;;;;;;;;;;;;;;22.33;71.66;100528.00;5013719;28;19996;-84
2022/06/11 08:43:14;;;;;;;;;;;;;;;22.55;70.76;100520.81;5011054;28;20413;-81
2022/06/11 08:45:55;;;;;;;;;;;;;;;22.46;70.93;100516.78;4994631;28;19972;-82
2022/06/11 08:48:38;;;;;;;;;;;;;;;22.66;71.71;100510.84;5000483;28;19927;-86
2022/06/11 08:51:20;;;;;;;;;;;;;;;22.69;71.53;100515.03;4994023;28;20334;-84
2022/06/11 08:53:49;;;;;;;;;;;;;;;22.77;70.22;100511.91;4995693;28;19913;-85
2022/06/11 08:56:34;;;;;;;;;;;;;;;22.71;69.53;100513.72;4991406;28;19929;-86
2022/06/11 08:59:13;;;;;;;;;;;;;;;22.68;69.51;100514.19;5011680;28;19917;-85
2022/06/11 09:01:41;;;;;;;;;;;;;;;22.77;69.41;100511.91;5004069;28;20386;-85
2022/06/11 09:04:09;;;;;;;;;;;;;;;22.58;69.93;100515.91;5009488;28;21700;-84
2022/06/11 09:06:54;;;;;;;;;;;;;;;22.83;69.82;100521.88;5009177;28;19917;-84
2022/06/11 09:09:41;;;;;;;;;;;;;;;23.02;69.70;100514.31;5003762;28;19917;-83
2022/06/11 09:12:25;;;;;;;;;;;;;;;23.00;69.09;100512.91;5006969;28;19921;-86
2022/06/11 09:14:51;;;;;;;;;;;;;;;23.03;69.52;100504.16;5007048;28;20374;-84
2022/06/11 09:17:31;;;;;;;;;;;;;;;23.13;68.89;100504.34;4996744;28;19914;-85
2022/06/11 09:20:17;;;;;;;;;;;;;;;23.08;69.23;100502.34;5026673;28;19915;-87
2022/06/11 09:22:48;;;;;;;;;;;;;;;23.20;69.72;100509.66;5009463;28;19925;-85
2022/06/11 09:25:17;;;;;;;;;;;;;;;23.20;69.26;100507.75;4997662;28;19941;-86
2022/06/11 09:27:45;;;;;;;;;;;;;;;23.32;67.48;100496.69;5016850;28;19971;-85
2022/06/11 09:30:43;;;;;;;;;;;;;;;23.46;68.14;100502.69;5025031;28;20024;-86
2022/06/11 09:33:17;;;;;;;;;;;;;;;23.63;69.43;100498.03;4994177;28;19918;-85
2022/06/11 09:35:57;;;;;;;;;;;;;;;23.65;67.33;100489.53;5015201;28;19940;-86
2022/06/11 09:38:36;;;;;;;;;;;;;;;23.63;67.15;100487.06;5013948;28;20036;-84
2022/06/11 09:41:37;;;;;;;;;;;;;;;23.66;67.90;100491.19;4996899;28;20227;-84
2022/06/11 09:44:08;;;;;;;;;;;;;;;23.74;67.91;100488.91;4955932;28;20378;-85
2022/06/11 09:46:52;;;;;;;;;;;;;;;23.91;67.18;100482.53;5015914;28;19969;-83
2022/06/11 09:49:30;;;;;;;;;;;;;;;23.87;66.25;100481.38;5018726;28;20036;-84
2022/06/11 09:52:25;;;;;;;;;;;;;;;23.75;66.50;100474.09;5001408;28;19928;-85
2022/06/11 09:55:02;;;;;;;;;;;;;;;23.91;66.82;100468.81;4933181;29;19926;-87
2022/06/11 09:57:33;;;;;;;;;;;;;;;23.96;66.17;100466.94;4926226;29;19918;-85
2022/06/11 10:00:01;;;;;;;;;;;;;;;23.97;65.40;100462.28;4938804;29;19953;-85
2022/06/11 10:06:05;;;;;;;;;;;;;;;24.02;64.89;100440.38;4899067;29;19915;-86
2022/06/11 10:08:43;;;;;;;;;;;;;;;24.14;64.05;100438.34;5011002;28;19928;-86
2022/06/11 10:11:25;;;;;;;;;;;;;;;24.31;64.51;100442.94;4984196;28;19914;-86
2022/06/11 10:14:28;;;;;;;;;;;;;;;24.47;63.89;100428.31;4992154;28;20351;-86
2022/06/11 10:16:56;;;;;;;;;;;;;;;24.47;64.04;100430.22;5003462;28;19949;-86
2022/06/11 10:19:33;;;;;;;;;;;;;;;24.56;63.50;100425.91;5010156;28;19952;-86
2022/06/11 10:22:26;;;;;;;;;;;;;;;24.63;63.25;100426.53;5007763;28;19935;-86
2022/06/11 10:25:11;;;;;;;;;;;;;;;24.69;62.72;100427.44;5008102;28;19913;-88
2022/06/11 10:27:44;;;;;;;;;;;;;;;25.01;62.78;100424.69;4952745;28;19914;-87
2022/06/11 10:30:16;;;;;;;;;;;;;;;25.24;59.92;100429.03;4997599;28;19925;-87
2022/06/11 10:32:44;;;;;;;;;;;;;;;25.05;60.61;100415.66;4994799;28;19987;-88
2022/06/11 10:35:23;;;;;;;;;;;;;;;25.45;62.03;100418.97;5008841;28;19913;-87
2022/06/11 10:37:49;;;;;;;;;;;;;;;25.42;60.89;100419.50;4995725;28;19950;-85
2022/06/11 10:40:16;;;;;;;;;;;;;;;25.52;60.64;100413.22;4996275;28;20003;-87
2022/06/11 10:42:48;;;;;;;;;;;;;;;25.53;58.97;100415.72;5004262;28;20426;-84
2022/06/11 10:45:20;;;;;;;;;;;;;;;25.53;58.10;100415.72;4993627;28;20087;-85
2022/06/11 10:47:48;;;;;;;;;;;;;;;25.48;57.87;100408.25;5011432;28;19917;-86
2022/06/11 10:50:29;;;;;;;;;;;;;;;25.32;58.25;100409.25;5010181;28;19918;-84
2022/06/11 10:53:01;;;;;;;;;;;;;;;25.16;58.72;100405.53;5010385;28;19967;-85
2022/06/11 10:55:59;;;;;;;;;;;;;;;24.84;58.59;100408.31;5015364;28;19936;-85
2022/06/11 10:58:33;;;;;;;;;;;;;;;24.78;60.17;100409.38;5000225;28;19925;-84
2022/06/11 11:01:06;;;;;;;;;;;;;;;24.39;60.16;100407.56;5020845;28;20374;-86
2022/06/11 11:03:47;;;;;;;;;;;;;;;24.26;60.53;100396.19;5018628;28;19974;-86
2022/06/11 11:06:41;;;;;;;;;;;;;;;24.23;61.38;100398.38;5025026;28;19921;-86
2022/06/11 11:09:11;;;;;;;;;;;;;;;23.96;62.13;100400.25;5022081;28;19917;-86
2022/06/11 11:11:51;;;;;;;;;;;;;;;23.77;62.33;100389.56;4985479;28;20020;-85
2022/06/11 11:14:26;;;;;;;;;;;;;;;23.84;62.79;100394.88;5012618;28;20031;-85
2022/06/11 11:16:53;;;;;;;;;;;;;;;23.94;63.18;100394.16;4992174;28;19977;-83
2022/06/11 11:19:19;;;;;;;;;;;;;;;23.96;62.33;100390.06;5017829;28;20008;-88
2022/06/11 11:21:52;;;;;;;;;;;;;;;23.95;62.49;100393.06;5018328;28;19918;-89
2022/06/11 11:24:22;;;;;;;;;;;;;;;23.97;63.21;100388.97;5017738;28;19925;-86
2022/06/11 11:26:53;;;;;;;;;;;;;;;23.78;63.16;100391.22;4999559;28;19917;-89
2022/06/11 11:29:40;;;;;;;;;;;;;;;23.95;63.38;100390.31;5013952;28;20383;-84
2022/06/11 11:32:06;;;;;;;;;;;;;;;23.85;63.67;100387.47;5007338;28;19981;-89
2022/06/11 11:34:41;;;;;;;;;;;;;;;24.03;61.89;100392.63;5017438;28;19987;-88
2022/06/11 11:37:16;;;;;;;;;;;;;;;23.80;63.89;100389.06;4989869;28;19921;-85
2022/06/11 11:39:51;;;;;;;;;;;;;;;23.61;64.37;100393.16;5013880;28;19945;-83
2022/06/11 11:42:23;;;;;;;;;;;;;;;23.69;64.24;100392.72;5016694;28;19950;-86
2022/06/11 11:44:57;;;;;;;;;;;;;;;23.63;64.12;100393.75;4996548;28;19913;-86
2022/06/11 11:47:38;;;;;;;;;;;;;;;23.42;64.88;100397.31;5009585;28;20219;-86
2022/06/11 11:50:14;;;;;;;;;;;;;;;23.45;64.87;100396.78;4987582;28;19930;-85
2022/06/11 11:52:50;;;;;;;;;;;;;;;23.00;65.66;100400.50;4994049;28;19917;-87
2022/06/11 11:55:36;;;;;;;;;;;;;;;23.10;65.15;100390.50;4996278;28;19918;-86
2022/06/11 11:58:18;;;;;;;;;;;;;;;23.17;65.92;100393.09;4994376;28;19941;-86
2022/06/11 12:00:46;;;;;;;;;;;;;;;23.05;66.33;100393.19;5008376;28;19917;-87
2022/06/11 12:03:27;;;;;;;;;;;;;;;23.09;65.96;100391.59;4992896;28;20010;-84
2022/06/11 12:05:53;;;;;;;;;;;;;;;23.06;66.20;100388.53;4993455;28;19968;-86
2022/06/11 12:08:25;;;;;;;;;;;;;;;23.10;66.35;100389.69;4992035;28;19965;-85
2022/06/11 12:10:51;;;;;;;;;;;;;;;22.92;66.08;100377.88;4994031;28;19913;-87
2022/06/11 12:13:33;;;;;;;;;;;;;;;22.93;66.75;100378.69;4990092;28;20320;-86
2022/06/11 12:16:01;;;;;;;;;;;;;;;22.88;66.89;100373.16;5005822;28;19926;-84
2022/06/11 12:18:31;;;;;;;;;;;;;;;22.72;67.46;100369.31;4988250;28;19918;-85
2022/06/11 12:21:01;;;;;;;;;;;;;;;22.76;67.68;100373.22;4993102;28;19924;-85
2022/06/11 12:23:47;;;;;;;;;;;;;;;22.77;67.07;100372.13;5002784;28;19905;-90
2022/06/11 12:30:01;;;;;;;;;;;;;;;22.51;67.96;100368.97;4955752;28;19926;-96
2022/06/11 12:32:30;;;;;;;;;;;;;;;22.72;67.80;100355.63;4993160;28;19922;-91
2022/06/11 12:35:18;;;;;;;;;;;;;;;22.72;67.57;100352.88;5001334;28;19922;-89
2022/06/11 12:37:47;;;;;;;;;;;;;;;22.78;67.16;100343.66;4990319;28;19917;-90
2022/06/11 12:40:32;;;;;;;;;;;;;;;22.77;67.32;100342.00;5010709;28;20038;-91
2022/06/11 12:43:21;;;;;;;;;;;;;;;22.92;67.16;100339.50;4995424;28;19925;-88
2022/06/11 12:46:09;;;;;;;;;;;;;;;23.20;66.31;100356.09;4987394;28;19914;-93
2022/06/11 12:48:59;;;;;;;;;;;;;;;23.28;66.02;100342.78;5006419;28;20303;-90
2022/06/11 12:51:30;;;;;;;;;;;;;;;23.25;66.10;100335.09;4986546;28;19933;-89
2022/06/11 12:54:05;;;;;;;;;;;;;;;23.34;65.52;100330.81;4992863;28;19917;-88
2022/06/11 12:56:54;;;;;;;;;;;;;;;23.20;66.08;100324.03;4993919;28;20377;-91
2022/06/11 12:59:21;;;;;;;;;;;;;;;23.24;66.18;100329.84;5014690;28;19917;-92
2022/06/11 13:01:48;;;;;;;;;;;;;;;23.20;66.29;100318.53;4995987;28;19917;-89
2022/06/11 13:04:37;;;;;;;;;;;;;;;23.27;66.58;100319.22;4988860;28;20410;-93
2022/06/11 13:07:35;;;;;;;;;;;;;;;23.21;66.57;100309.25;4987356;28;19932;-93
2022/06/11 13:10:15;;;;;;;;;;;;;;;23.17;66.76;100308.09;4994398;28;20287;-93
2022/06/11 13:13:03;;;;;;;;;;;;;;;23.25;65.97;100309.56;4976553;28;20478;-91